Airfield :
LOGIN :

Register | Disclaimer

   EN    FR    IT 

 










Legend :    VFR   Marginal VFR   IFR   Intensive IFR   Very Intensive IFR
Visi :
Ceiling :
>= 8 km
>= 3000ft
5 to 8 km
1000 to 3000 ft
1500m to 5 km
500 to 1000 ft
800 to 1500m
200 to 500 ft
< 800m
< 200 ft
Symbols :   Thunderstorms  Fog  Heavy snow  Heavy precipitations  Wind > 20 kt
SIGMETs :     Misc.  Thunderstorms  Icing  Turbulence  Mountain Waves  Volcanic Ashes







- Airport Elevation : 408 ft
- IATA code : FKB


EDSB - Karlsruhe Baden Baden

CURRENT METAR :
  • 191320Z 01008KT 340V050 7000 NSC 19/11 Q1021

EXPIRED METARs :
  • 191250Z 02010KT 6000 NSC 18/11 Q1021
  • 191220Z 02010KT 340V060 6000 NSC 18/11 Q1022
  • 191150Z 03009KT 340V060 5000 HZ NSC 17/10 Q1022
  • 191120Z 04009KT 360V060 6000 NSC 17/11 Q1022
  • 191050Z 36007KT 330V050 5000 BR NSC 16/11 Q1022

TAF TAF EDSB
Valid from the 19 at 12:00 until the 20 at 12:00 UTC


191100Z 1912/2012 03008KT 8000 NSC
TEMPO 1918/2003 03003KT
PROB40
TEMPO 2003/2010 2000 BR BKN004
No reported NOTAMs for that airfield.



MET'MAP, your aeronautical weather chart ! - Copyright ORBIFLY December 2007 - Disclaimer

ORBIFLY MET'MAP TEAM :

Programming & Development : Alexandra Zaïnal
Concept & Development : Baudouin d'Aumeries
Co-Development & Prog : Marc-Olivier Méhu
Technical & hardware support : Manuel Goepfert

Contact : metmap@orbifly.com




SOURCES & CREDITS :

   NOAA